createdAt,value
2022-07-26T00:01:06.653Z,0.70
2022-07-26T00:05:13.812Z,1.08
2022-07-26T00:09:20.901Z,0.70
2022-07-26T00:13:27.846Z,1.00
2022-07-26T00:17:37.447Z,0.88
2022-07-26T00:21:44.675Z,0.77
2022-07-26T00:25:51.428Z,1.25
2022-07-26T00:29:58.165Z,1.20
2022-07-26T00:34:04.890Z,0.50
2022-07-26T00:38:11.625Z,0.68
2022-07-26T00:42:18.349Z,1.02
2022-07-26T00:46:25.671Z,0.52
2022-07-26T00:50:32.584Z,1.10
2022-07-26T00:54:43.785Z,0.57
2022-07-26T00:58:50.621Z,1.70
2022-07-26T01:03:00.423Z,0.98
2022-07-26T01:07:14.675Z,0.60
2022-07-26T01:11:22.395Z,0.60
2022-07-26T01:15:29.139Z,1.48
2022-07-26T01:19:35.852Z,0.93
2022-07-26T01:23:43.882Z,0.68
2022-07-26T01:27:50.872Z,1.00
2022-07-26T01:31:57.740Z,0.85
2022-07-26T01:36:04.816Z,1.25
2022-07-26T01:40:12.087Z,0.85
2022-07-26T01:44:18.858Z,2.45
2022-07-26T01:48:25.801Z,1.35
2022-07-26T01:52:33.180Z,0.80
2022-07-26T01:56:40.386Z,1.25
2022-07-26T02:00:47.099Z,0.98
2022-07-26T02:04:59.733Z,0.70
2022-07-26T02:09:07.557Z,0.77
2022-07-26T02:13:17.780Z,1.20
2022-07-26T02:17:24.541Z,1.33
2022-07-26T02:21:31.273Z,1.20
2022-07-26T02:25:38.025Z,1.00
2022-07-26T02:29:44.938Z,0.82
2022-07-26T02:33:51.668Z,0.80
2022-07-26T02:38:03.769Z,0.73
2022-07-26T02:42:10.479Z,1.17
2022-07-26T02:46:17.304Z,1.13
2022-07-26T02:50:25.759Z,1.45
2022-07-26T02:54:32.518Z,2.28
2022-07-26T02:58:39.308Z,1.27
2022-07-26T03:02:47.678Z,0.98
2022-07-26T03:06:54.475Z,1.35
2022-07-26T03:11:01.184Z,0.90
2022-07-26T03:15:09.047Z,1.00
2022-07-26T03:19:15.947Z,1.73
2022-07-26T03:23:22.681Z,0.93
2022-07-26T03:27:29.439Z,0.98
2022-07-26T03:31:36.326Z,0.80
2022-07-26T03:35:43.238Z,0.82
2022-07-26T03:39:51.661Z,0.70
2022-07-26T03:43:58.366Z,0.70
2022-07-26T03:48:05.421Z,0.82
2022-07-26T03:52:12.176Z,1.17
2022-07-26T03:56:34.192Z,1.90
2022-07-26T04:04:47.674Z,1.60
2022-07-26T04:08:55.137Z,1.13
2022-07-26T04:13:01.872Z,0.90
2022-07-26T04:17:08.671Z,1.02
2022-07-26T04:21:15.602Z,0.82
2022-07-26T04:25:22.389Z,0.80
2022-07-26T04:29:29.128Z,0.70
2022-07-26T04:33:36.237Z,0.68
2022-07-26T04:37:44.289Z,0.70
2022-07-26T04:41:51.057Z,1.65
2022-07-26T04:45:57.996Z,0.90
2022-07-26T04:50:05.282Z,1.00
2022-07-26T04:54:12.049Z,0.63
2022-07-26T04:58:19.204Z,0.80
2022-07-26T05:02:27.065Z,1.00
2022-07-26T05:06:33.902Z,0.80
2022-07-26T05:10:40.696Z,1.35
2022-07-26T05:14:47.394Z,0.68
2022-07-26T05:18:54.168Z,1.10
2022-07-26T05:23:01.060Z,0.93
2022-07-26T05:27:07.780Z,1.23
2022-07-26T05:31:14.592Z,0.88
2022-07-26T05:35:21.576Z,0.70
2022-07-26T05:39:28.334Z,0.82
2022-07-26T05:43:41.691Z,0.60
2022-07-26T05:47:52.644Z,0.55
2022-07-26T05:52:01.281Z,0.70
2022-07-26T05:56:08.535Z,1.08
2022-07-26T06:00:15.781Z,0.50
2022-07-26T06:04:25.900Z,0.38
2022-07-26T06:08:33.222Z,0.60
2022-07-26T06:12:40.091Z,0.40
2022-07-26T06:16:47.712Z,0.60
2022-07-26T06:20:55.833Z,0.40
2022-07-26T06:25:02.609Z,0.30
2022-07-26T06:29:09.366Z,0.35
2022-07-26T06:33:16.174Z,0.25
2022-07-26T06:37:22.968Z,0.30
2022-07-26T06:41:29.776Z,0.88
2022-07-26T06:45:36.579Z,0.55
2022-07-26T06:49:44.815Z,0.55
2022-07-26T06:53:51.851Z,0.43
2022-07-26T06:57:58.595Z,0.40
2022-07-26T07:02:05.852Z,0.20
2022-07-26T07:06:12.677Z,0.50
2022-07-26T07:10:19.373Z,0.63
2022-07-26T07:14:30.773Z,0.30
2022-07-26T07:18:37.596Z,0.30
2022-07-26T07:22:44.431Z,0.40
2022-07-26T07:26:51.174Z,0.20
2022-07-26T07:30:57.945Z,0.28
2022-07-26T07:35:05.083Z,0.20
2022-07-26T07:39:19.834Z,0.20
2022-07-26T07:43:26.698Z,0.47
2022-07-26T07:47:34.267Z,0.35
2022-07-26T07:51:41.101Z,0.22
2022-07-26T07:55:48.771Z,0.30
2022-07-26T07:59:56.197Z,0.40
2022-07-26T08:04:03.133Z,0.35
2022-07-26T08:08:10.021Z,0.40
2022-07-26T08:12:17.401Z,0.60
2022-07-26T08:16:25.249Z,0.32
2022-07-26T08:20:32.039Z,0.45
2022-07-26T08:24:40.528Z,0.30
2022-07-26T08:28:48.309Z,0.30
2022-07-26T08:32:55.632Z,0.10
2022-07-26T08:37:18.369Z,0.20
2022-07-26T08:41:25.445Z,0.28
2022-07-26T08:45:32.816Z,0.20
2022-07-26T08:49:40.009Z,0.13
2022-07-26T08:53:47.578Z,0.17
2022-07-26T08:57:54.429Z,0.40
2022-07-26T09:02:04.546Z,0.20
2022-07-26T09:06:22.686Z,0.13
2022-07-26T09:10:38.969Z,0.10
2022-07-26T09:14:47.162Z,0.55
2022-07-26T09:18:54.340Z,0.35
2022-07-26T09:23:13.973Z,0.28
2022-07-26T09:27:24.106Z,0.20
2022-07-26T09:31:33.753Z,0.85
2022-07-26T09:35:51.079Z,0.32
2022-07-26T09:40:00.878Z,0.20
2022-07-26T09:44:23.828Z,0.10
2022-07-26T09:48:52.336Z,0.20
2022-07-26T09:53:07.559Z,0.15
2022-07-26T09:57:19.698Z,0.20
2022-07-26T10:01:26.638Z,0.20
2022-07-26T10:05:33.733Z,0.22
2022-07-26T10:09:56.920Z,0.20
2022-07-26T10:14:38.695Z,0.93
2022-07-26T10:18:45.892Z,0.20
2022-07-26T10:22:52.604Z,0.40
2022-07-26T10:26:59.557Z,0.20
2022-07-26T10:31:21.318Z,0.32
2022-07-26T10:35:44.160Z,0.95
2022-07-26T10:40:14.844Z,0.20
2022-07-26T10:44:25.110Z,0.47
2022-07-26T10:48:31.888Z,1.25
2022-07-26T10:52:56.431Z,0.10
2022-07-26T10:57:03.179Z,0.20
2022-07-26T11:01:09.938Z,0.10
2022-07-26T11:05:18.532Z,0.20
2022-07-26T11:09:34.304Z,0.10
2022-07-26T11:13:41.077Z,0.10
2022-07-26T11:17:47.821Z,0.10
2022-07-26T11:21:58.979Z,0.20
2022-07-26T11:26:16.372Z,0.10
2022-07-26T11:30:23.238Z,0.10
2022-07-26T11:34:33.759Z,0.20
2022-07-26T11:38:58.900Z,0.20
2022-07-26T11:43:08.043Z,0.20
2022-07-26T11:47:24.502Z,0.20
2022-07-26T11:51:32.965Z,0.75
2022-07-26T11:55:42.879Z,0.40
2022-07-26T11:59:53.938Z,0.10
2022-07-26T12:04:00.750Z,0.20
2022-07-26T12:08:08.247Z,0.30
2022-07-26T12:12:27.824Z,0.40
2022-07-26T12:16:34.550Z,0.50
2022-07-26T12:21:02.012Z,0.50
2022-07-26T12:25:11.083Z,0.40
2022-07-26T12:29:29.884Z,0.40
2022-07-26T12:33:48.912Z,0.20
2022-07-26T12:37:55.780Z,0.20
2022-07-26T12:42:34.645Z,0.65
2022-07-26T12:46:41.779Z,0.32
2022-07-26T12:50:48.549Z,0.60
2022-07-26T12:54:55.666Z,0.47
2022-07-26T12:59:02.701Z,0.93
2022-07-26T13:03:09.445Z,0.77
2022-07-26T13:07:17.888Z,0.50
2022-07-26T13:11:25.208Z,0.30
2022-07-26T13:15:37.204Z,0.55
2022-07-26T13:19:44.762Z,0.55
2022-07-26T13:23:51.544Z,0.43
2022-07-26T13:27:58.359Z,0.40
2022-07-26T13:32:05.596Z,0.60
2022-07-26T13:36:12.487Z,0.75
2022-07-26T13:40:19.425Z,0.20
2022-07-26T13:44:26.180Z,0.38
2022-07-26T13:48:32.941Z,0.30
2022-07-26T13:52:40.394Z,0.73
2022-07-26T13:56:48.397Z,0.40
2022-07-26T14:00:55.280Z,0.40
2022-07-26T14:05:02.073Z,0.50
2022-07-26T14:09:12.047Z,0.47
2022-07-26T14:13:18.885Z,0.40
2022-07-26T14:17:25.710Z,0.52
2022-07-26T14:21:45.462Z,0.65
2022-07-26T14:25:57.273Z,0.63
2022-07-26T14:30:05.421Z,0.60
2022-07-26T14:34:12.592Z,0.30
2022-07-26T14:38:25.460Z,0.40
2022-07-26T14:42:36.331Z,1.02
2022-07-26T14:46:43.878Z,0.25
2022-07-26T14:51:08.556Z,0.40
2022-07-26T14:55:20.515Z,0.35
2022-07-26T14:59:31.345Z,0.40
2022-07-26T15:03:38.097Z,0.40
2022-07-26T15:07:46.208Z,0.50
2022-07-26T15:11:53.096Z,0.40
2022-07-26T15:15:59.929Z,0.30
2022-07-26T15:20:07.642Z,0.20
2022-07-26T15:24:14.858Z,0.20
2022-07-26T15:28:21.716Z,0.20
2022-07-26T15:32:28.552Z,0.40
2022-07-26T15:36:35.325Z,0.20
2022-07-26T15:40:42.147Z,0.20
2022-07-26T15:44:48.930Z,0.30
2022-07-26T15:48:57.684Z,0.20
2022-07-26T15:53:04.537Z,0.43
2022-07-26T15:57:11.277Z,0.20
2022-07-26T16:01:18.261Z,0.20
2022-07-26T16:05:25.201Z,0.20
2022-07-26T16:09:31.981Z,0.20
2022-07-26T16:13:38.765Z,0.38
2022-07-26T16:17:45.492Z,0.20
2022-07-26T16:21:52.204Z,0.40
2022-07-26T16:25:59.264Z,0.17
2022-07-26T16:30:06.494Z,0.20
2022-07-26T16:34:13.239Z,0.20
2022-07-26T16:38:20.001Z,0.38
2022-07-26T16:42:27.554Z,0.40
2022-07-26T16:46:34.557Z,0.40
2022-07-26T16:50:41.417Z,0.38
2022-07-26T16:54:48.204Z,0.20
2022-07-26T16:58:54.910Z,0.20
2022-07-26T17:03:01.666Z,0.20
2022-07-26T17:07:24.656Z,0.20
2022-07-26T17:11:32.474Z,0.10
2022-07-26T17:15:39.753Z,0.20
2022-07-26T17:19:46.485Z,0.47
2022-07-26T17:23:53.576Z,0.10
2022-07-26T17:28:00.421Z,0.10
2022-07-26T17:32:07.390Z,0.55
2022-07-26T17:36:24.363Z,0.10
2022-07-26T17:40:31.794Z,0.20
2022-07-26T17:44:40.223Z,0.22
2022-07-26T17:48:47.178Z,0.30
2022-07-26T17:52:54.113Z,0.17
2022-07-26T17:57:00.845Z,0.85
2022-07-26T18:01:07.888Z,0.35
2022-07-26T18:05:15.142Z,0.20
2022-07-26T18:09:21.971Z,0.10
2022-07-26T18:13:29.080Z,0.20
2022-07-26T18:17:36.402Z,0.17
2022-07-26T18:21:43.180Z,0.47
2022-07-26T18:25:50.139Z,0.13
2022-07-26T18:29:57.603Z,0.10
2022-07-26T18:34:06.557Z,0.20
2022-07-26T18:38:13.667Z,0.20
2022-07-26T18:42:20.438Z,0.20
2022-07-26T18:46:27.221Z,0.77
2022-07-26T18:50:34.152Z,0.20
2022-07-26T18:54:41.718Z,0.22
2022-07-26T18:58:48.448Z,0.30
2022-07-26T19:02:57.304Z,0.55
2022-07-26T19:07:04.044Z,0.10
2022-07-26T19:11:10.814Z,0.20
2022-07-26T19:15:17.978Z,0.28
2022-07-26T19:19:24.773Z,0.82
2022-07-26T19:23:31.577Z,0.15
2022-07-26T19:27:38.469Z,0.30
2022-07-26T19:31:46.237Z,0.28
2022-07-26T19:35:53.534Z,0.35
2022-07-26T19:40:01.116Z,0.32
2022-07-26T19:44:07.836Z,0.20
2022-07-26T19:48:14.603Z,0.20
2022-07-26T19:52:21.344Z,0.20
2022-07-26T19:56:28.397Z,0.30
2022-07-26T20:00:35.289Z,0.40
2022-07-26T20:04:45.895Z,0.20
2022-07-26T20:08:53.121Z,0.35
2022-07-26T20:13:00.001Z,0.30
2022-07-26T20:17:11.732Z,0.20
2022-07-26T20:21:19.986Z,0.20
2022-07-26T20:25:26.716Z,0.20
2022-07-26T20:29:33.654Z,0.20
2022-07-26T20:33:40.391Z,0.65
2022-07-26T20:37:47.179Z,0.57
2022-07-26T20:41:54.243Z,0.73
2022-07-26T20:46:02.177Z,0.20
2022-07-26T20:50:10.450Z,0.30
2022-07-26T20:54:17.385Z,0.10
2022-07-26T20:58:24.135Z,0.25
2022-07-26T21:02:30.906Z,0.17
2022-07-26T21:06:37.718Z,0.10
2022-07-26T21:10:45.973Z,0.50
2022-07-26T21:14:53.101Z,0.30
2022-07-26T21:19:00.719Z,0.20
2022-07-26T21:23:16.921Z,0.20
2022-07-26T21:27:24.715Z,0.20
2022-07-26T21:31:31.563Z,0.30
2022-07-26T21:35:38.368Z,0.20
2022-07-26T21:39:45.083Z,0.60
2022-07-26T21:43:52.533Z,0.30
2022-07-26T21:47:59.281Z,0.35
2022-07-26T21:52:06.077Z,0.20
2022-07-26T21:56:12.834Z,0.65
2022-07-26T22:00:19.605Z,1.58
2022-07-26T22:04:26.355Z,0.30
2022-07-26T22:08:33.894Z,0.30
2022-07-26T22:12:40.626Z,0.30
2022-07-26T22:16:49.141Z,0.22
2022-07-26T22:20:56.204Z,0.20
2022-07-26T22:25:03.493Z,0.52
2022-07-26T22:29:10.514Z,0.73
2022-07-26T22:33:17.619Z,0.25
2022-07-26T22:37:24.386Z,0.30
2022-07-26T22:41:31.756Z,0.60
2022-07-26T22:45:39.629Z,0.30
2022-07-26T22:49:46.375Z,0.28
2022-07-26T22:53:53.133Z,0.40
2022-07-26T22:58:01.341Z,0.40
2022-07-26T23:02:08.080Z,0.50
2022-07-26T23:06:32.116Z,0.25
2022-07-26T23:10:39.177Z,0.75
2022-07-26T23:14:45.907Z,0.30
2022-07-26T23:18:52.736Z,0.30
2022-07-26T23:22:59.444Z,0.55
2022-07-26T23:27:06.227Z,0.32
2022-07-26T23:31:13.253Z,0.60
2022-07-26T23:35:21.308Z,0.70
2022-07-26T23:39:28.052Z,0.38
2022-07-26T23:43:34.760Z,0.30
2022-07-26T23:47:41.543Z,0.40
2022-07-26T23:51:48.288Z,0.40
2022-07-26T23:55:55.013Z,0.50
